sensor_id;sensor_type;location;lat;lon;timestamp;temperature;humidity
69335;SHT31;56477;52.742;15.242;2023-04-01T00:01:41;8.60;99.99
69335;SHT31;56477;52.742;15.242;2023-04-01T00:04:07;8.60;99.99
69335;SHT31;56477;52.742;15.242;2023-04-01T00:06:32;8.59;99.99
69335;SHT31;56477;52.742;15.242;2023-04-01T00:08:59;8.54;99.99
69335;SHT31;56477;52.742;15.242;2023-04-01T00:11:24;8.57;99.99
69335;SHT31;56477;52.742;15.242;2023-04-01T00:13:53;8.56;99.98
69335;SHT31;56477;52.742;15.242;2023-04-01T00:16:19;8.56;99.98
69335;SHT31;56477;52.742;15.242;2023-04-01T00:18:46;8.54;99.99
69335;SHT31;56477;52.742;15.242;2023-04-01T00:21:15;8.54;99.99
69335;SHT31;56477;52.742;15.242;2023-04-01T00:23:41;8.54;99.99
69335;SHT31;56477;52.742;15.242;2023-04-01T00:26:07;8.51;99.99
69335;SHT31;56477;52.742;15.242;2023-04-01T00:28:34;8.56;99.99
69335;SHT31;56477;52.742;15.242;2023-04-01T00:31:05;8.54;99.95
69335;SHT31;56477;52.742;15.242;2023-04-01T00:33:32;8.53;99.96
69335;SHT31;56477;52.742;15.242;2023-04-01T00:36:06;8.56;99.94
69335;SHT31;56477;52.742;15.242;2023-04-01T00:38:32;8.56;99.92
69335;SHT31;56477;52.742;15.242;2023-04-01T00:40:58;8.50;99.93
69335;SHT31;56477;52.742;15.242;2023-04-01T00:43:25;8.49;99.94
69335;SHT31;56477;52.742;15.242;2023-04-01T00:45:51;8.47;99.93
69335;SHT31;56477;52.742;15.242;2023-04-01T00:48:23;8.47;99.94
69335;SHT31;56477;52.742;15.242;2023-04-01T00:51:06;8.49;99.93
69335;SHT31;56477;52.742;15.242;2023-04-01T00:53:37;8.47;99.93
69335;SHT31;56477;52.742;15.242;2023-04-01T00:56:12;8.44;99.93
69335;SHT31;56477;52.742;15.242;2023-04-01T00:58:44;8.47;99.89
69335;SHT31;56477;52.742;15.242;2023-04-01T01:01:12;8.44;99.85
69335;SHT31;56477;52.742;15.242;2023-04-01T01:03:38;8.46;99.93
69335;SHT31;56477;52.742;15.242;2023-04-01T01:06:13;8.43;99.85
69335;SHT31;56477;52.742;15.242;2023-04-01T01:14:53;8.42;99.81
69335;SHT31;56477;52.742;15.242;2023-04-01T01:17:32;8.43;99.78
69335;SHT31;56477;52.742;15.242;2023-04-01T01:23:15;8.44;99.78
69335;SHT31;56477;52.742;15.242;2023-04-01T01:26:11;8.44;99.63
69335;SHT31;56477;52.742;15.242;2023-04-01T01:28:52;8.47;99.64
69335;SHT31;56477;52.742;15.242;2023-04-01T01:31:37;8.46;99.55
69335;SHT31;56477;52.742;15.242;2023-04-01T01:34:22;8.49;99.58
69335;SHT31;56477;52.742;15.242;2023-04-01T01:36:54;8.47;99.57
69335;SHT31;56477;52.742;15.242;2023-04-01T01:39:23;8.47;99.61
69335;SHT31;56477;52.742;15.242;2023-04-01T01:41:55;8.49;99.59
69335;SHT31;56477;52.742;15.242;2023-04-01T01:44:23;8.46;99.63
69335;SHT31;56477;52.742;15.242;2023-04-01T01:46:49;8.46;99.63
69335;SHT31;56477;52.742;15.242;2023-04-01T01:49:17;8.43;99.62
69335;SHT31;56477;52.742;15.242;2023-04-01T01:51:44;8.44;99.68
69335;SHT31;56477;52.742;15.242;2023-04-01T01:54:17;8.44;99.72
69335;SHT31;56477;52.742;15.242;2023-04-01T01:56:47;8.40;99.71
69335;SHT31;56477;52.742;15.242;2023-04-01T01:59:15;8.44;99.76
69335;SHT31;56477;52.742;15.242;2023-04-01T02:01:46;8.43;99.85
69335;SHT31;56477;52.742;15.242;2023-04-01T02:04:14;8.43;99.85
69335;SHT31;56477;52.742;15.242;2023-04-01T02:06:47;8.42;99.84
69335;SHT31;56477;52.742;15.242;2023-04-01T02:09:15;8.43;99.87
69335;SHT31;56477;52.742;15.242;2023-04-01T02:14:14;8.40;99.95
69335;SHT31;56477;52.742;15.242;2023-04-01T02:16:55;8.42;99.99
69335;SHT31;56477;52.742;15.242;2023-04-01T02:19:32;8.40;99.99
69335;SHT31;56477;52.742;15.242;2023-04-01T02:22:01;8.43;99.99
69335;SHT31;56477;52.742;15.242;2023-04-01T02:24:30;8.40;99.99
69335;SHT31;56477;52.742;15.242;2023-04-01T02:26:57;8.42;99.99
69335;SHT31;56477;52.742;15.242;2023-04-01T02:29:24;8.42;99.99
69335;SHT31;56477;52.742;15.242;2023-04-01T02:31:54;8.37;99.99
69335;SHT31;56477;52.742;15.242;2023-04-01T02:34:22;8.40;99.99
69335;SHT31;56477;52.742;15.242;2023-04-01T02:36:49;8.37;99.99
69335;SHT31;56477;52.742;15.242;2023-04-01T02:39:16;8.39;99.99
69335;SHT31;56477;52.742;15.242;2023-04-01T02:41:44;8.36;99.99
69335;SHT31;56477;52.742;15.242;2023-04-01T02:44:12;8.34;99.99
69335;SHT31;56477;52.742;15.242;2023-04-01T02:46:39;8.39;99.99
69335;SHT31;56477;52.742;15.242;2023-04-01T02:49:05;8.36;99.99
69335;SHT31;56477;52.742;15.242;2023-04-01T02:51:31;8.34;99.99
69335;SHT31;56477;52.742;15.242;2023-04-01T02:53:57;8.32;99.99
69335;SHT31;56477;52.742;15.242;2023-04-01T02:56:23;8.33;99.99
69335;SHT31;56477;52.742;15.242;2023-04-01T02:58:49;8.34;99.99
69335;SHT31;56477;52.742;15.242;2023-04-01T03:01:16;8.34;99.99
69335;SHT31;56477;52.742;15.242;2023-04-01T03:03:42;8.36;99.99
69335;SHT31;56477;52.742;15.242;2023-04-01T03:06:10;8.37;99.99
69335;SHT31;56477;52.742;15.242;2023-04-01T03:08:36;8.34;99.99
69335;SHT31;56477;52.742;15.242;2023-04-01T03:11:02;8.36;99.99
69335;SHT31;56477;52.742;15.242;2023-04-01T03:13:28;8.37;99.99
69335;SHT31;56477;52.742;15.242;2023-04-01T03:15:54;8.42;99.99
69335;SHT31;56477;52.742;15.242;2023-04-01T03:18:20;8.39;99.99
69335;SHT31;56477;52.742;15.242;2023-04-01T03:20:47;8.40;99.99
69335;SHT31;56477;52.742;15.242;2023-04-01T03:23:13;8.39;99.99
69335;SHT31;56477;52.742;15.242;2023-04-01T03:25:39;8.36;99.99
69335;SHT31;56477;52.742;15.242;2023-04-01T03:28:05;8.39;99.99
69335;SHT31;56477;52.742;15.242;2023-04-01T03:30:31;8.40;99.99
69335;SHT31;56477;52.742;15.242;2023-04-01T03:32:57;8.34;99.99
69335;SHT31;56477;52.742;15.242;2023-04-01T03:35:25;8.36;99.99
69335;SHT31;56477;52.742;15.242;2023-04-01T03:37:51;8.36;99.99
69335;SHT31;56477;52.742;15.242;2023-04-01T03:40:18;8.34;99.99
69335;SHT31;56477;52.742;15.242;2023-04-01T03:42:45;8.37;99.99
69335;SHT31;56477;52.742;15.242;2023-04-01T03:45:12;8.42;99.99
69335;SHT31;56477;52.742;15.242;2023-04-01T03:47:38;8.34;99.99
69335;SHT31;56477;52.742;15.242;2023-04-01T03:50:05;8.39;99.99
69335;SHT31;56477;52.742;15.242;2023-04-01T03:52:32;8.36;99.99
69335;SHT31;56477;52.742;15.242;2023-04-01T03:54:58;8.36;99.99
69335;SHT31;56477;52.742;15.242;2023-04-01T03:57:24;8.37;99.99
69335;SHT31;56477;52.742;15.242;2023-04-01T03:59:50;8.36;99.99
69335;SHT31;56477;52.742;15.242;2023-04-01T04:02:17;8.36;99.99
69335;SHT31;56477;52.742;15.242;2023-04-01T04:04:43;8.37;99.99
69335;SHT31;56477;52.742;15.242;2023-04-01T04:07:09;8.34;99.99
69335;SHT31;56477;52.742;15.242;2023-04-01T04:09:35;8.37;99.99
69335;SHT31;56477;52.742;15.242;2023-04-01T04:12:01;8.39;99.99
69335;SHT31;56477;52.742;15.242;2023-04-01T04:14:27;8.39;99.99
69335;SHT31;56477;52.742;15.242;2023-04-01T04:16:53;8.36;99.99
69335;SHT31;56477;52.742;15.242;2023-04-01T04:19:19;8.43;99.99
69335;SHT31;56477;52.742;15.242;2023-04-01T04:21:45;8.40;99.99
69335;SHT31;56477;52.742;15.242;2023-04-01T04:24:11;8.40;99.99
69335;SHT31;56477;52.742;15.242;2023-04-01T04:26:36;8.42;99.99
69335;SHT31;56477;52.742;15.242;2023-04-01T04:29:03;8.43;99.99
69335;SHT31;56477;52.742;15.242;2023-04-01T04:31:28;8.40;99.99
69335;SHT31;56477;52.742;15.242;2023-04-01T04:33:55;8.36;99.99
69335;SHT31;56477;52.742;15.242;2023-04-01T04:36:21;8.39;99.99
69335;SHT31;56477;52.742;15.242;2023-04-01T04:38:48;8.43;99.99
69335;SHT31;56477;52.742;15.242;2023-04-01T04:41:15;8.40;99.99
69335;SHT31;56477;52.742;15.242;2023-04-01T04:43:49;8.46;99.99
69335;SHT31;56477;52.742;15.242;2023-04-01T04:46:15;8.43;99.99
69335;SHT31;56477;52.742;15.242;2023-04-01T04:48:41;8.44;99.99
69335;SHT31;56477;52.742;15.242;2023-04-01T04:51:13;8.44;99.99
69335;SHT31;56477;52.742;15.242;2023-04-01T04:53:39;8.43;99.99
69335;SHT31;56477;52.742;15.242;2023-04-01T04:56:06;8.43;99.99
69335;SHT31;56477;52.742;15.242;2023-04-01T04:58:32;8.43;99.99
69335;SHT31;56477;52.742;15.242;2023-04-01T05:00:59;8.46;99.99
69335;SHT31;56477;52.742;15.242;2023-04-01T05:03:25;8.47;99.99
69335;SHT31;56477;52.742;15.242;2023-04-01T05:05:52;8.47;99.99
69335;SHT31;56477;52.742;15.242;2023-04-01T05:08:19;8.49;99.99
69335;SHT31;56477;52.742;15.242;2023-04-01T05:10:45;8.50;99.99
69335;SHT31;56477;52.742;15.242;2023-04-01T05:13:11;8.49;99.99
69335;SHT31;56477;52.742;15.242;2023-04-01T05:15:37;8.49;99.99
69335;SHT31;56477;52.742;15.242;2023-04-01T05:18:03;8.51;99.99
69335;SHT31;56477;52.742;15.242;2023-04-01T05:20:29;8.51;99.99
69335;SHT31;56477;52.742;15.242;2023-04-01T05:22:58;8.56;99.99
69335;SHT31;56477;52.742;15.242;2023-04-01T05:25:25;8.56;99.99
69335;SHT31;56477;52.742;15.242;2023-04-01T05:27:51;8.56;99.99
69335;SHT31;56477;52.742;15.242;2023-04-01T05:30:17;8.57;99.99
69335;SHT31;56477;52.742;15.242;2023-04-01T05:32:44;8.61;99.99
69335;SHT31;56477;52.742;15.242;2023-04-01T05:35:10;8.65;99.99
69335;SHT31;56477;52.742;15.242;2023-04-01T05:37:37;8.67;99.99
69335;SHT31;56477;52.742;15.242;2023-04-01T05:40:03;8.70;99.99
69335;SHT31;56477;52.742;15.242;2023-04-01T05:42:30;8.70;99.99
69335;SHT31;56477;52.742;15.242;2023-04-01T05:44:56;8.70;99.99
69335;SHT31;56477;52.742;15.242;2023-04-01T05:47:22;8.74;99.99
69335;SHT31;56477;52.742;15.242;2023-04-01T05:49:48;8.77;99.99
69335;SHT31;56477;52.742;15.242;2023-04-01T05:52:14;8.75;99.99
69335;SHT31;56477;52.742;15.242;2023-04-01T05:54:40;8.77;99.99
69335;SHT31;56477;52.742;15.242;2023-04-01T05:57:06;8.81;99.99
69335;SHT31;56477;52.742;15.242;2023-04-01T05:59:32;8.84;99.99
69335;SHT31;56477;52.742;15.242;2023-04-01T06:02:00;8.82;99.99
69335;SHT31;56477;52.742;15.242;2023-04-01T06:04:32;8.85;99.99
69335;SHT31;56477;52.742;15.242;2023-04-01T06:07:00;8.91;99.99
69335;SHT31;56477;52.742;15.242;2023-04-01T06:09:28;8.82;99.99
69335;SHT31;56477;52.742;15.242;2023-04-01T06:15:01;8.72;99.74
69335;SHT31;56477;52.742;15.242;2023-04-01T06:23:32;8.50;99.47
69335;SHT31;56477;52.742;15.242;2023-04-01T06:43:28;8.49;99.35
69335;SHT31;56477;52.742;15.242;2023-04-01T06:46:12;8.42;99.11
69335;SHT31;56477;52.742;15.242;2023-04-01T06:51:32;8.19;98.72
69335;SHT31;56477;52.742;15.242;2023-04-01T06:54:10;8.17;99.04
69335;SHT31;56477;52.742;15.242;2023-04-01T06:56:40;8.12;98.82
69335;SHT31;56477;52.742;15.242;2023-04-01T06:59:28;8.09;98.94
69335;SHT31;56477;52.742;15.242;2023-04-01T07:02:01;8.01;98.67
69335;SHT31;56477;52.742;15.242;2023-04-01T07:04:32;7.98;98.76
69335;SHT31;56477;52.742;15.242;2023-04-01T07:09:53;7.96;98.86
69335;SHT31;56477;52.742;15.242;2023-04-01T07:12:38;7.98;98.98
69335;SHT31;56477;52.742;15.242;2023-04-01T07:15:17;7.95;98.72
69335;SHT31;56477;52.742;15.242;2023-04-01T07:17:47;7.93;98.69
69335;SHT31;56477;52.742;15.242;2023-04-01T07:20:32;7.91;98.40
69335;SHT31;56477;52.742;15.242;2023-04-01T07:23:25;7.93;98.54
69335;SHT31;56477;52.742;15.242;2023-04-01T07:26:18;7.93;98.45
69335;SHT31;56477;52.742;15.242;2023-04-01T07:28:44;7.95;98.51
69335;SHT31;56477;52.742;15.242;2023-04-01T07:31:30;7.96;98.24
69335;SHT31;56477;52.742;15.242;2023-04-01T07:36:45;7.89;98.15
69335;SHT31;56477;52.742;15.242;2023-04-01T07:39:18;7.93;98.41
69335;SHT31;56477;52.742;15.242;2023-04-01T07:42:14;7.98;98.25
69335;SHT31;56477;52.742;15.242;2023-04-01T07:45:04;8.01;97.97
69335;SHT31;56477;52.742;15.242;2023-04-01T07:48:04;7.99;97.92
69335;SHT31;56477;52.742;15.242;2023-04-01T07:50:43;8.05;97.92
69335;SHT31;56477;52.742;15.242;2023-04-01T07:56:12;8.17;97.62
69335;SHT31;56477;52.742;15.242;2023-04-01T07:59:05;8.17;97.28
69335;SHT31;56477;52.742;15.242;2023-04-01T08:04:19;8.21;97.33
69335;SHT31;56477;52.742;15.242;2023-04-01T08:07:18;8.23;97.19
69335;SHT31;56477;52.742;15.242;2023-04-01T08:15:27;8.19;96.76
69335;SHT31;56477;52.742;15.242;2023-04-01T08:18:00;8.14;96.99
69335;SHT31;56477;52.742;15.242;2023-04-01T08:20:51;8.16;97.22
69335;SHT31;56477;52.742;15.242;2023-04-01T08:23:22;8.16;96.83
69335;SHT31;56477;52.742;15.242;2023-04-01T08:28:50;8.17;96.95
69335;SHT31;56477;52.742;15.242;2023-04-01T08:32:18;8.17;97.08
69335;SHT31;56477;52.742;15.242;2023-04-01T08:34:24;8.16;96.83
69335;SHT31;56477;52.742;15.242;2023-04-01T08:37:02;8.07;97.24
69335;SHT31;56477;52.742;15.242;2023-04-01T08:39:44;8.02;97.09
69335;SHT31;56477;52.742;15.242;2023-04-01T08:45:35;8.06;97.35
69335;SHT31;56477;52.742;15.242;2023-04-01T08:48:21;8.05;97.20
69335;SHT31;56477;52.742;15.242;2023-04-01T08:52:14;8.06;97.26
69335;SHT31;56477;52.742;15.242;2023-04-01T09:03:20;8.12;97.52
69335;SHT31;56477;52.742;15.242;2023-04-01T09:14:21;8.07;97.51
69335;SHT31;56477;52.742;15.242;2023-04-01T09:27:57;8.05;97.05
69335;SHT31;56477;52.742;15.242;2023-04-01T09:30:39;8.06;97.13
69335;SHT31;56477;52.742;15.242;2023-04-01T09:36:02;8.01;96.82
69335;SHT31;56477;52.742;15.242;2023-04-01T09:44:34;7.92;97.28
69335;SHT31;56477;52.742;15.242;2023-04-01T09:52:52;7.95;97.11
69335;SHT31;56477;52.742;15.242;2023-04-01T09:55:30;7.93;97.18
69335;SHT31;56477;52.742;15.242;2023-04-01T09:58:19;7.91;97.04
69335;SHT31;56477;52.742;15.242;2023-04-01T10:24:09;7.78;96.58
69335;SHT31;56477;52.742;15.242;2023-04-01T10:27:01;7.81;96.82
69335;SHT31;56477;52.742;15.242;2023-04-01T10:40:36;8.07;95.92
69335;SHT31;56477;52.742;15.242;2023-04-01T10:46:21;8.09;96.02
69335;SHT31;56477;52.742;15.242;2023-04-01T10:49:02;8.10;95.59
69335;SHT31;56477;52.742;15.242;2023-04-01T10:56:58;8.13;95.21
69335;SHT31;56477;52.742;15.242;2023-04-01T11:05:24;8.21;95.46
69335;SHT31;56477;52.742;15.242;2023-04-01T11:30:33;7.79;97.20
69335;SHT31;56477;52.742;15.242;2023-04-01T11:33:34;7.82;97.16
69335;SHT31;56477;52.742;15.242;2023-04-01T11:39:59;7.92;97.59
69335;SHT31;56477;52.742;15.242;2023-04-01T11:41:56;7.93;97.12
69335;SHT31;56477;52.742;15.242;2023-04-01T11:44:28;8.01;97.44
69335;SHT31;56477;52.742;15.242;2023-04-01T12:12:35;8.09;96.87
69335;SHT31;56477;52.742;15.242;2023-04-01T12:17:46;8.07;97.50
69335;SHT31;56477;52.742;15.242;2023-04-01T12:26:09;8.01;97.54
69335;SHT31;56477;52.742;15.242;2023-04-01T12:38:30;7.88;97.40
69335;SHT31;56477;52.742;15.242;2023-04-01T12:40:56;7.72;97.53
69335;SHT31;56477;52.742;15.242;2023-04-01T12:46:19;7.70;97.71
69335;SHT31;56477;52.742;15.242;2023-04-01T12:51:58;7.60;97.83
69335;SHT31;56477;52.742;15.242;2023-04-01T12:57:46;7.51;98.15
69335;SHT31;56477;52.742;15.242;2023-04-01T13:08:48;7.46;98.40
69335;SHT31;56477;52.742;15.242;2023-04-01T13:13:55;7.46;98.93
69335;SHT31;56477;52.742;15.242;2023-04-01T13:17:10;7.42;98.57
69335;SHT31;56477;52.742;15.242;2023-04-01T13:28:00;7.43;98.85
69335;SHT31;56477;52.742;15.242;2023-04-01T13:31:05;7.38;98.88
69335;SHT31;56477;52.742;15.242;2023-04-01T13:39:19;7.31;98.78
69335;SHT31;56477;52.742;15.242;2023-04-01T13:42:05;7.27;98.69
69335;SHT31;56477;52.742;15.242;2023-04-01T13:44:48;7.27;98.39
69335;SHT31;56477;52.742;15.242;2023-04-01T13:50:29;7.28;98.33
69335;SHT31;56477;52.742;15.242;2023-04-01T13:56:06;7.27;98.18
69335;SHT31;56477;52.742;15.242;2023-04-01T13:58:55;7.23;98.14
69335;SHT31;56477;52.742;15.242;2023-04-01T14:01:50;7.26;98.21
69335;SHT31;56477;52.742;15.242;2023-04-01T14:10:18;7.27;98.08
69335;SHT31;56477;52.742;15.242;2023-04-01T14:13:12;7.26;97.85
69335;SHT31;56477;52.742;15.242;2023-04-01T14:18:56;7.27;97.60
69335;SHT31;56477;52.742;15.242;2023-04-01T14:21:35;7.26;97.72
69335;SHT31;56477;52.742;15.242;2023-04-01T14:29:47;7.28;97.49
69335;SHT31;56477;52.742;15.242;2023-04-01T14:49:37;7.40;96.28
69335;SHT31;56477;52.742;15.242;2023-04-01T14:52:17;7.40;96.24
69335;SHT31;56477;52.742;15.242;2023-04-01T14:54:48;7.43;96.23
69335;SHT31;56477;52.742;15.242;2023-04-01T14:57:24;7.44;96.06
69335;SHT31;56477;52.742;15.242;2023-04-01T15:08:17;7.43;95.39
69335;SHT31;56477;52.742;15.242;2023-04-01T15:19:08;7.30;94.77
69335;SHT31;56477;52.742;15.242;2023-04-01T15:24:46;7.24;94.53
69335;SHT31;56477;52.742;15.242;2023-04-01T15:30:18;7.22;94.72
69335;SHT31;56477;52.742;15.242;2023-04-01T15:43:53;7.33;93.99
69335;SHT31;56477;52.742;15.242;2023-04-01T15:46:43;7.30;93.67
69335;SHT31;56477;52.742;15.242;2023-04-01T15:49:36;7.27;93.86
69335;SHT31;56477;52.742;15.242;2023-04-01T16:02:53;7.12;93.29
69335;SHT31;56477;52.742;15.242;2023-04-01T16:05:44;7.00;93.00
69335;SHT31;56477;52.742;15.242;2023-04-01T16:13:58;6.86;93.32
69335;SHT31;56477;52.742;15.242;2023-04-01T16:29:43;6.76;93.65
69335;SHT31;56477;52.742;15.242;2023-04-01T16:32:46;6.71;93.85
69335;SHT31;56477;52.742;15.242;2023-04-01T16:38:07;6.58;93.92
69335;SHT31;56477;52.742;15.242;2023-04-01T16:43:30;6.49;93.55
69335;SHT31;56477;52.742;15.242;2023-04-01T16:51:48;6.30;93.68
69335;SHT31;56477;52.742;15.242;2023-04-01T16:56:54;6.23;93.68
69335;SHT31;56477;52.742;15.242;2023-04-01T16:59:37;6.16;93.70
69335;SHT31;56477;52.742;15.242;2023-04-01T17:02:10;6.14;93.77
69335;SHT31;56477;52.742;15.242;2023-04-01T17:04:47;6.13;93.50
69335;SHT31;56477;52.742;15.242;2023-04-01T17:15:46;5.90;93.69
69335;SHT31;56477;52.742;15.242;2023-04-01T17:24:14;5.72;93.59
69335;SHT31;56477;52.742;15.242;2023-04-01T17:26:59;5.68;93.74
69335;SHT31;56477;52.742;15.242;2023-04-01T17:45:58;5.30;93.00
69335;SHT31;56477;52.742;15.242;2023-04-01T17:51:22;5.31;92.83
69335;SHT31;56477;52.742;15.242;2023-04-01T17:54:11;5.27;93.38
69335;SHT31;56477;52.742;15.242;2023-04-01T17:59:35;5.31;93.11
69335;SHT31;56477;52.742;15.242;2023-04-01T18:07:27;5.17;92.42
69335;SHT31;56477;52.742;15.242;2023-04-01T18:10:20;5.20;92.44
69335;SHT31;56477;52.742;15.242;2023-04-01T18:13:07;5.18;92.80
69335;SHT31;56477;52.742;15.242;2023-04-01T18:15:56;5.16;92.85
69335;SHT31;56477;52.742;15.242;2023-04-01T18:23:47;5.10;92.65
69335;SHT31;56477;52.742;15.242;2023-04-01T18:26:33;5.10;92.49
69335;SHT31;56477;52.742;15.242;2023-04-01T18:29:04;5.10;92.18
69335;SHT31;56477;52.742;15.242;2023-04-01T18:31:41;5.03;91.84
69335;SHT31;56477;52.742;15.242;2023-04-01T18:34:15;5.00;91.80
69335;SHT31;56477;52.742;15.242;2023-04-01T18:36:44;5.06;92.06
69335;SHT31;56477;52.742;15.242;2023-04-01T18:39:16;5.04;92.31
69335;SHT31;56477;52.742;15.242;2023-04-01T18:44:52;5.00;91.88
69335;SHT31;56477;52.742;15.242;2023-04-01T18:50:29;4.99;91.85
69335;SHT31;56477;52.742;15.242;2023-04-01T18:55:42;4.96;91.96
69335;SHT31;56477;52.742;15.242;2023-04-01T19:01:57;4.90;91.79
69335;SHT31;56477;52.742;15.242;2023-04-01T19:07:19;4.83;91.70
69335;SHT31;56477;52.742;15.242;2023-04-01T19:09:49;4.84;91.66
69335;SHT31;56477;52.742;15.242;2023-04-01T19:12:22;4.80;91.69
69335;SHT31;56477;52.742;15.242;2023-04-01T19:25:40;4.72;91.80
69335;SHT31;56477;52.742;15.242;2023-04-01T19:36:55;4.76;91.23
69335;SHT31;56477;52.742;15.242;2023-04-01T19:44:41;4.70;91.53
69335;SHT31;56477;52.742;15.242;2023-04-01T19:50:05;4.70;91.72
69335;SHT31;56477;52.742;15.242;2023-04-01T19:52:38;4.69;91.70
69335;SHT31;56477;52.742;15.242;2023-04-01T19:57:55;4.63;91.85
69335;SHT31;56477;52.742;15.242;2023-04-01T20:00:41;4.62;91.70
69335;SHT31;56477;52.742;15.242;2023-04-01T20:03:34;4.63;91.85
69335;SHT31;56477;52.742;15.242;2023-04-01T20:08:36;4.63;91.84
69335;SHT31;56477;52.742;15.242;2023-04-01T20:11:38;4.60;91.79
69335;SHT31;56477;52.742;15.242;2023-04-01T20:15:02;4.62;91.83
69335;SHT31;56477;52.742;15.242;2023-04-01T20:17:26;4.62;92.00
69335;SHT31;56477;52.742;15.242;2023-04-01T20:28:21;4.55;91.92
69335;SHT31;56477;52.742;15.242;2023-04-01T20:30:58;4.55;91.72
69335;SHT31;56477;52.742;15.242;2023-04-01T20:53:01;4.29;90.86
69335;SHT31;56477;52.742;15.242;2023-04-01T20:55:53;4.24;91.31
69335;SHT31;56477;52.742;15.242;2023-04-01T21:04:26;4.14;90.92
69335;SHT31;56477;52.742;15.242;2023-04-01T21:17:33;4.10;90.55
69335;SHT31;56477;52.742;15.242;2023-04-01T21:20:04;4.05;90.43
69335;SHT31;56477;52.742;15.242;2023-04-01T21:42:35;3.97;89.44
69335;SHT31;56477;52.742;15.242;2023-04-01T21:44:57;3.95;89.78
69335;SHT31;56477;52.742;15.242;2023-04-01T21:53:16;3.93;89.92
69335;SHT31;56477;52.742;15.242;2023-04-01T22:07:19;3.79;89.67
69335;SHT31;56477;52.742;15.242;2023-04-01T22:17:39;3.74;89.51
69335;SHT31;56477;52.742;15.242;2023-04-01T22:28:27;3.59;89.53
69335;SHT31;56477;52.742;15.242;2023-04-01T22:31:00;3.59;89.52
69335;SHT31;56477;52.742;15.242;2023-04-01T22:41:27;3.56;89.48
69335;SHT31;56477;52.742;15.242;2023-04-01T22:43:57;3.56;89.30
69335;SHT31;56477;52.742;15.242;2023-04-01T22:49:15;3.55;88.84
69335;SHT31;56477;52.742;15.242;2023-04-01T22:51:45;3.49;89.11
69335;SHT31;56477;52.742;15.242;2023-04-01T22:54:21;3.50;88.84
69335;SHT31;56477;52.742;15.242;2023-04-01T22:56:53;3.50;88.63
69335;SHT31;56477;52.742;15.242;2023-04-01T23:02:03;3.46;88.69
69335;SHT31;56477;52.742;15.242;2023-04-01T23:04:38;3.46;88.80
69335;SHT31;56477;52.742;15.242;2023-04-01T23:09:58;3.44;89.04
69335;SHT31;56477;52.742;15.242;2023-04-01T23:12:27;3.42;88.72
69335;SHT31;56477;52.742;15.242;2023-04-01T23:14:58;3.43;88.79
69335;SHT31;56477;52.742;15.242;2023-04-01T23:17:39;3.39;88.62
69335;SHT31;56477;52.742;15.242;2023-04-01T23:20:29;3.32;88.67
69335;SHT31;56477;52.742;15.242;2023-04-01T23:23:23;3.29;88.74
69335;SHT31;56477;52.742;15.242;2023-04-01T23:26:08;3.26;88.36
69335;SHT31;56477;52.742;15.242;2023-04-01T23:36:40;3.31;89.22
69335;SHT31;56477;52.742;15.242;2023-04-01T23:39:34;3.32;89.14
69335;SHT31;56477;52.742;15.242;2023-04-01T23:42:29;3.23;89.06
69335;SHT31;56477;52.742;15.242;2023-04-01T23:44:58;3.22;88.99
69335;SHT31;56477;52.742;15.242;2023-04-01T23:47:32;3.21;88.96
69335;SHT31;56477;52.742;15.242;2023-04-01T23:50:13;3.23;88.74
69335;SHT31;56477;52.742;15.242;2023-04-01T23:52:43;3.22;88.80
69335;SHT31;56477;52.742;15.242;2023-04-01T23:55:22;3.18;88.68
